sensor_id;sensor_type;location;lat;lon;timestamp;pressure;altitude;pressure_sealevel;temperature;humidity
19210;BME280;9738;51.654;14.238;2022-07-26T00:01:33;99932.13;;;21.88;100.00
19210;BME280;9738;51.654;14.238;2022-07-26T00:03:58;99928.59;;;21.88;100.00
19210;BME280;9738;51.654;14.238;2022-07-26T00:06:26;99923.97;;;21.88;100.00
19210;BME280;9738;51.654;14.238;2022-07-26T00:08:52;99933.22;;;21.87;100.00
19210;BME280;9738;51.654;14.238;2022-07-26T00:11:18;99938.88;;;21.85;100.00
19210;BME280;9738;51.654;14.238;2022-07-26T00:13:45;99949.53;;;21.87;100.00
19210;BME280;9738;51.654;14.238;2022-07-26T00:16:11;99948.69;;;21.86;100.00
19210;BME280;9738;51.654;14.238;2022-07-26T00:18:37;99951.66;;;21.85;100.00
19210;BME280;9738;51.654;14.238;2022-07-26T00:21:04;99939.72;;;21.86;100.00
19210;BME280;9738;51.654;14.238;2022-07-26T00:23:30;99931.69;;;21.79;100.00
19210;BME280;9738;51.654;14.238;2022-07-26T00:25:56;99925.66;;;21.77;100.00
19210;BME280;9738;51.654;14.238;2022-07-26T00:28:22;99928.00;;;21.74;100.00
19210;BME280;9738;51.654;14.238;2022-07-26T00:30:48;99928.50;;;21.71;100.00
19210;BME280;9738;51.654;14.238;2022-07-26T00:33:14;99928.97;;;21.68;100.00
19210;BME280;9738;51.654;14.238;2022-07-26T00:35:39;99946.34;;;21.67;100.00
19210;BME280;9738;51.654;14.238;2022-07-26T00:38:06;99944.56;;;21.61;100.00
19210;BME280;9738;51.654;14.238;2022-07-26T00:40:32;99958.16;;;21.61;100.00
19210;BME280;9738;51.654;14.238;2022-07-26T00:42:58;99960.03;;;21.60;100.00
19210;BME280;9738;51.654;14.238;2022-07-26T00:45:24;99966.06;;;21.50;100.00
19210;BME280;9738;51.654;14.238;2022-07-26T00:47:50;99967.09;;;21.49;100.00
19210;BME280;9738;51.654;14.238;2022-07-26T00:50:17;99974.81;;;21.52;100.00
19210;BME280;9738;51.654;14.238;2022-07-26T00:52:46;99993.13;;;21.57;100.00
19210;BME280;9738;51.654;14.238;2022-07-26T00:55:12;99999.16;;;21.59;100.00
19210;BME280;9738;51.654;14.238;2022-07-26T00:57:38;99996.19;;;21.61;100.00
19210;BME280;9738;51.654;14.238;2022-07-26T01:00:12;99998.91;;;21.61;100.00
19210;BME280;9738;51.654;14.238;2022-07-26T01:02:39;100022.78;;;21.58;100.00
19210;BME280;9738;51.654;14.238;2022-07-26T01:05:06;100011.91;;;21.58;100.00
19210;BME280;9738;51.654;14.238;2022-07-26T01:07:32;100009.19;;;21.58;100.00
19210;BME280;9738;51.654;14.238;2022-07-26T01:09:58;100021.59;;;21.54;100.00
19210;BME280;9738;51.654;14.238;2022-07-26T01:12:24;100011.19;;;21.51;98.29
19210;BME280;9738;51.654;14.238;2022-07-26T01:14:50;100020.97;;;21.41;94.36
19210;BME280;9738;51.654;14.238;2022-07-26T01:17:15;100001.00;;;21.35;93.73
19210;BME280;9738;51.654;14.238;2022-07-26T01:19:42;100007.78;;;21.26;94.18
19210;BME280;9738;51.654;14.238;2022-07-26T01:22:07;100017.31;;;21.17;96.77
19210;BME280;9738;51.654;14.238;2022-07-26T01:24:33;100026.84;;;21.08;97.82
19210;BME280;9738;51.654;14.238;2022-07-26T01:27:00;100034.47;;;20.99;96.13
19210;BME280;9738;51.654;14.238;2022-07-26T01:29:26;100031.84;;;20.92;94.72
19210;BME280;9738;51.654;14.238;2022-07-26T01:31:52;100029.38;;;20.91;95.08
19210;BME280;9738;51.654;14.238;2022-07-26T01:34:18;100027.81;;;20.83;96.27
19210;BME280;9738;51.654;14.238;2022-07-26T01:36:44;100024.50;;;20.81;100.00
19210;BME280;9738;51.654;14.238;2022-07-26T01:39:10;100022.06;;;20.73;100.00
19210;BME280;9738;51.654;14.238;2022-07-26T01:41:37;100014.94;;;20.60;100.00
19210;BME280;9738;51.654;14.238;2022-07-26T01:44:03;100020.91;;;20.50;100.00
19210;BME280;9738;51.654;14.238;2022-07-26T01:46:29;100024.31;;;20.39;100.00
19210;BME280;9738;51.654;14.238;2022-07-26T01:48:55;100040.06;;;20.31;100.00
19210;BME280;9738;51.654;14.238;2022-07-26T01:51:21;100046.81;;;20.21;100.00
19210;BME280;9738;51.654;14.238;2022-07-26T01:53:46;100049.59;;;20.15;100.00
19210;BME280;9738;51.654;14.238;2022-07-26T01:56:13;100053.84;;;20.11;100.00
19210;BME280;9738;51.654;14.238;2022-07-26T01:58:40;100054.31;;;20.01;100.00
19210;BME280;9738;51.654;14.238;2022-07-26T02:01:06;100045.19;;;19.95;100.00
19210;BME280;9738;51.654;14.238;2022-07-26T02:03:34;100045.25;;;19.89;100.00
19210;BME280;9738;51.654;14.238;2022-07-26T02:06:00;100046.97;;;19.83;100.00
19210;BME280;9738;51.654;14.238;2022-07-26T02:08:26;100063.47;;;19.82;100.00
19210;BME280;9738;51.654;14.238;2022-07-26T02:10:53;100069.09;;;19.80;100.00
19210;BME280;9738;51.654;14.238;2022-07-26T02:13:36;100069.53;;;19.77;100.00
19210;BME280;9738;51.654;14.238;2022-07-26T02:16:04;100065.16;;;19.76;100.00
19210;BME280;9738;51.654;14.238;2022-07-26T02:18:31;100065.41;;;19.75;100.00
19210;BME280;9738;51.654;14.238;2022-07-26T02:20:58;100088.31;;;19.72;100.00
19210;BME280;9738;51.654;14.238;2022-07-26T02:23:25;100072.91;;;19.73;100.00
19210;BME280;9738;51.654;14.238;2022-07-26T02:25:52;100077.94;;;19.69;100.00
19210;BME280;9738;51.654;14.238;2022-07-26T02:28:19;100066.50;;;19.67;100.00
19210;BME280;9738;51.654;14.238;2022-07-26T02:30:46;100060.06;;;19.61;100.00
19210;BME280;9738;51.654;14.238;2022-07-26T02:33:12;100063.00;;;19.60;100.00
19210;BME280;9738;51.654;14.238;2022-07-26T02:35:38;100059.44;;;19.59;100.00
19210;BME280;9738;51.654;14.238;2022-07-26T02:38:08;100047.78;;;19.59;100.00
19210;BME280;9738;51.654;14.238;2022-07-26T02:40:35;100044.44;;;19.57;100.00
19210;BME280;9738;51.654;14.238;2022-07-26T02:43:02;100033.84;;;19.55;100.00
19210;BME280;9738;51.654;14.238;2022-07-26T02:45:29;100036.53;;;19.55;100.00
19210;BME280;9738;51.654;14.238;2022-07-26T02:47:55;100035.28;;;19.58;100.00
19210;BME280;9738;51.654;14.238;2022-07-26T02:50:23;100040.91;;;19.56;100.00
19210;BME280;9738;51.654;14.238;2022-07-26T02:52:51;100035.09;;;19.53;100.00
19210;BME280;9738;51.654;14.238;2022-07-26T02:55:18;100039.91;;;19.51;100.00
19210;BME280;9738;51.654;14.238;2022-07-26T02:57:45;100041.78;;;19.50;100.00
19210;BME280;9738;51.654;14.238;2022-07-26T03:00:15;100048.25;;;19.49;100.00
19210;BME280;9738;51.654;14.238;2022-07-26T03:02:42;100051.19;;;19.48;100.00
19210;BME280;9738;51.654;14.238;2022-07-26T03:05:08;100057.63;;;19.47;100.00
19210;BME280;9738;51.654;14.238;2022-07-26T03:07:34;100062.22;;;19.46;100.00
19210;BME280;9738;51.654;14.238;2022-07-26T03:10:01;100061.63;;;19.44;100.00
19210;BME280;9738;51.654;14.238;2022-07-26T03:12:27;100059.13;;;19.42;100.00
19210;BME280;9738;51.654;14.238;2022-07-26T03:14:53;100065.59;;;19.41;100.00
19210;BME280;9738;51.654;14.238;2022-07-26T03:17:19;100067.25;;;19.42;100.00
19210;BME280;9738;51.654;14.238;2022-07-26T03:19:44;100069.38;;;19.40;100.00
19210;BME280;9738;51.654;14.238;2022-07-26T03:22:11;100073.31;;;19.38;100.00
19210;BME280;9738;51.654;14.238;2022-07-26T03:24:36;100076.84;;;19.38;100.00
19210;BME280;9738;51.654;14.238;2022-07-26T03:27:02;100081.22;;;19.39;100.00
19210;BME280;9738;51.654;14.238;2022-07-26T03:29:29;100093.09;;;19.38;100.00
19210;BME280;9738;51.654;14.238;2022-07-26T03:31:55;100089.78;;;19.36;100.00
19210;BME280;9738;51.654;14.238;2022-07-26T03:34:20;100081.06;;;19.34;100.00
19210;BME280;9738;51.654;14.238;2022-07-26T03:36:47;100084.78;;;19.33;100.00
19210;BME280;9738;51.654;14.238;2022-07-26T03:39:12;100087.50;;;19.33;100.00
19210;BME280;9738;51.654;14.238;2022-07-26T03:41:38;100086.47;;;19.34;100.00
19210;BME280;9738;51.654;14.238;2022-07-26T03:44:05;100085.84;;;19.32;100.00
19210;BME280;9738;51.654;14.238;2022-07-26T03:46:30;100097.50;;;19.33;100.00
19210;BME280;9738;51.654;14.238;2022-07-26T03:48:56;100102.91;;;19.33;100.00
19210;BME280;9738;51.654;14.238;2022-07-26T03:51:22;100103.59;;;19.28;100.00
19210;BME280;9738;51.654;14.238;2022-07-26T03:53:48;100103.59;;;19.28;100.00
19210;BME280;9738;51.654;14.238;2022-07-26T03:56:14;100097.34;;;19.21;100.00
19210;BME280;9738;51.654;14.238;2022-07-26T03:59:05;100092.81;;;19.15;100.00
19210;BME280;9738;51.654;14.238;2022-07-26T04:01:32;100095.13;;;19.11;100.00
19210;BME280;9738;51.654;14.238;2022-07-26T04:04:00;100104.06;;;19.12;100.00
19210;BME280;9738;51.654;14.238;2022-07-26T04:06:26;100101.97;;;19.14;100.00
19210;BME280;9738;51.654;14.238;2022-07-26T04:08:53;100108.03;;;19.16;100.00
19210;BME280;9738;51.654;14.238;2022-07-26T04:11:19;100115.69;;;19.19;100.00
19210;BME280;9738;51.654;14.238;2022-07-26T04:13:45;100117.16;;;19.22;100.00
19210;BME280;9738;51.654;14.238;2022-07-26T04:16:11;100115.88;;;19.24;100.00
19210;BME280;9738;51.654;14.238;2022-07-26T04:18:37;100120.84;;;19.27;100.00
19210;BME280;9738;51.654;14.238;2022-07-26T04:21:03;100117.97;;;19.29;100.00
19210;BME280;9738;51.654;14.238;2022-07-26T04:23:29;100124.81;;;19.31;100.00
19210;BME280;9738;51.654;14.238;2022-07-26T04:25:55;100125.41;;;19.33;100.00
19210;BME280;9738;51.654;14.238;2022-07-26T04:28:21;100128.13;;;19.33;100.00
19210;BME280;9738;51.654;14.238;2022-07-26T04:30:46;100125.63;;;19.32;100.00
19210;BME280;9738;51.654;14.238;2022-07-26T04:33:13;100124.81;;;19.31;100.00
19210;BME280;9738;51.654;14.238;2022-07-26T04:35:38;100126.47;;;19.32;100.00
19210;BME280;9738;51.654;14.238;2022-07-26T04:38:04;100114.81;;;19.32;100.00
19210;BME280;9738;51.654;14.238;2022-07-26T04:40:31;100115.63;;;19.32;100.00
19210;BME280;9738;51.654;14.238;2022-07-26T04:43:00;100115.63;;;19.32;100.00
19210;BME280;9738;51.654;14.238;2022-07-26T04:45:26;100101.88;;;19.34;100.00
19210;BME280;9738;51.654;14.238;2022-07-26T04:47:53;100107.91;;;19.36;100.00
19210;BME280;9738;51.654;14.238;2022-07-26T04:50:20;100114.78;;;19.38;100.00
19210;BME280;9738;51.654;14.238;2022-07-26T04:52:48;100116.41;;;19.39;100.00
19210;BME280;9738;51.654;14.238;2022-07-26T04:55:14;100120.38;;;19.43;100.00
19210;BME280;9738;51.654;14.238;2022-07-26T04:57:41;100132.63;;;19.46;100.00
19210;BME280;9738;51.654;14.238;2022-07-26T05:00:09;100138.25;;;19.51;100.00
19210;BME280;9738;51.654;14.238;2022-07-26T05:02:36;100133.84;;;19.57;100.00
19210;BME280;9738;51.654;14.238;2022-07-26T05:05:03;100131.94;;;19.64;100.00
19210;BME280;9738;51.654;14.238;2022-07-26T05:07:39;100137.13;;;19.65;100.00
19210;BME280;9738;51.654;14.238;2022-07-26T05:10:06;100136.75;;;19.62;100.00
19210;BME280;9738;51.654;14.238;2022-07-26T05:12:32;100124.28;;;19.61;100.00
19210;BME280;9738;51.654;14.238;2022-07-26T05:14:58;100130.28;;;19.63;100.00
19210;BME280;9738;51.654;14.238;2022-07-26T05:17:24;100130.28;;;19.63;100.00
19210;BME280;9738;51.654;14.238;2022-07-26T05:19:50;100131.72;;;19.65;100.00
19210;BME280;9738;51.654;14.238;2022-07-26T05:22:15;100130.19;;;19.76;100.00
19210;BME280;9738;51.654;14.238;2022-07-26T05:24:42;100127.22;;;19.84;100.00
19210;BME280;9738;51.654;14.238;2022-07-26T05:27:07;100128.63;;;19.93;100.00
19210;BME280;9738;51.654;14.238;2022-07-26T05:29:33;100132.53;;;19.97;100.00
19210;BME280;9738;51.654;14.238;2022-07-26T05:32:00;100130.47;;;20.00;100.00
19210;BME280;9738;51.654;14.238;2022-07-26T05:34:25;100129.41;;;20.01;100.00
19210;BME280;9738;51.654;14.238;2022-07-26T05:36:51;100135.00;;;20.06;100.00
19210;BME280;9738;51.654;14.238;2022-07-26T05:39:17;100125.97;;;20.12;100.00
19210;BME280;9738;51.654;14.238;2022-07-26T05:41:43;100133.44;;;20.16;100.00
19210;BME280;9738;51.654;14.238;2022-07-26T05:44:09;100148.00;;;20.22;100.00
19210;BME280;9738;51.654;14.238;2022-07-26T05:46:35;100159.91;;;20.21;100.00
19210;BME280;9738;51.654;14.238;2022-07-26T05:49:04;100166.91;;;20.29;100.00
19210;BME280;9738;51.654;14.238;2022-07-26T05:51:31;100165.19;;;20.34;100.00
19210;BME280;9738;51.654;14.238;2022-07-26T05:53:57;100164.94;;;20.42;100.00
19210;BME280;9738;51.654;14.238;2022-07-26T05:56:23;100163.22;;;20.48;100.00
19210;BME280;9738;51.654;14.238;2022-07-26T05:58:49;100153.22;;;20.48;100.00
19210;BME280;9738;51.654;14.238;2022-07-26T06:01:16;100168.81;;;20.53;100.00
19210;BME280;9738;51.654;14.238;2022-07-26T06:03:42;100174.66;;;20.57;100.00
19210;BME280;9738;51.654;14.238;2022-07-26T06:06:07;100169.22;;;20.57;100.00
19210;BME280;9738;51.654;14.238;2022-07-26T06:08:34;100157.91;;;20.60;100.00
19210;BME280;9738;51.654;14.238;2022-07-26T06:11:00;100154.97;;;20.61;100.00
19210;BME280;9738;51.654;14.238;2022-07-26T06:13:26;100165.78;;;20.68;100.00
19210;BME280;9738;51.654;14.238;2022-07-26T06:15:53;100172.16;;;20.73;100.00
19210;BME280;9738;51.654;14.238;2022-07-26T06:18:18;100176.09;;;20.77;100.00
19210;BME280;9738;51.654;14.238;2022-07-26T06:20:45;100178.38;;;20.81;100.00
19210;BME280;9738;51.654;14.238;2022-07-26T06:23:12;100179.34;;;20.86;100.00
19210;BME280;9738;51.654;14.238;2022-07-26T06:25:38;100175.81;;;20.86;100.00
19210;BME280;9738;51.654;14.238;2022-07-26T06:28:06;100171.44;;;20.85;100.00
19210;BME280;9738;51.654;14.238;2022-07-26T06:30:34;100176.03;;;20.84;100.00
19210;BME280;9738;51.654;14.238;2022-07-26T06:33:00;100189.09;;;20.94;100.00
19210;BME280;9738;51.654;14.238;2022-07-26T06:35:26;100185.50;;;21.00;100.00
19210;BME280;9738;51.654;14.238;2022-07-26T06:38:01;100189.63;;;21.02;100.00
19210;BME280;9738;51.654;14.238;2022-07-26T06:40:27;100183.44;;;21.14;100.00
19210;BME280;9738;51.654;14.238;2022-07-26T06:42:53;100173.19;;;21.34;100.00
19210;BME280;9738;51.654;14.238;2022-07-26T06:45:19;100183.91;;;21.47;100.00
19210;BME280;9738;51.654;14.238;2022-07-26T06:47:45;100185.47;;;21.55;100.00
19210;BME280;9738;51.654;14.238;2022-07-26T06:50:11;100184.09;;;21.64;100.00
19210;BME280;9738;51.654;14.238;2022-07-26T06:52:37;100186.94;;;21.69;100.00
19210;BME280;9738;51.654;14.238;2022-07-26T06:55:04;100195.84;;;21.76;100.00
19210;BME280;9738;51.654;14.238;2022-07-26T06:57:30;100193.03;;;21.83;100.00
19210;BME280;9738;51.654;14.238;2022-07-26T06:59:56;100193.56;;;22.03;100.00
19210;BME280;9738;51.654;14.238;2022-07-26T07:02:22;100191.59;;;22.10;100.00
19210;BME280;9738;51.654;14.238;2022-07-26T07:04:48;100196.56;;;22.13;96.28
19210;BME280;9738;51.654;14.238;2022-07-26T07:07:14;100193.97;;;22.19;91.60
19210;BME280;9738;51.654;14.238;2022-07-26T07:09:40;100194.72;;;22.14;87.21
19210;BME280;9738;51.654;14.238;2022-07-26T07:12:06;100189.13;;;22.09;85.04
19210;BME280;9738;51.654;14.238;2022-07-26T07:14:32;100195.41;;;22.09;86.90
19210;BME280;9738;51.654;14.238;2022-07-26T07:16:58;100187.81;;;22.11;85.90
19210;BME280;9738;51.654;14.238;2022-07-26T07:19:24;100190.09;;;22.15;83.15
19210;BME280;9738;51.654;14.238;2022-07-26T07:21:51;100187.47;;;22.20;81.07
19210;BME280;9738;51.654;14.238;2022-07-26T07:24:17;100186.19;;;22.22;79.91
19210;BME280;9738;51.654;14.238;2022-07-26T07:26:43;100180.75;;;22.22;80.07
19210;BME280;9738;51.654;14.238;2022-07-26T07:29:10;100187.25;;;22.21;79.36
19210;BME280;9738;51.654;14.238;2022-07-26T07:31:40;100185.94;;;22.12;79.10
19210;BME280;9738;51.654;14.238;2022-07-26T07:34:06;100178.53;;;22.01;74.84
19210;BME280;9738;51.654;14.238;2022-07-26T07:36:33;100186.34;;;21.97;75.03
19210;BME280;9738;51.654;14.238;2022-07-26T07:38:59;100181.34;;;21.94;77.63
19210;BME280;9738;51.654;14.238;2022-07-26T07:41:24;100176.00;;;21.88;77.20
19210;BME280;9738;51.654;14.238;2022-07-26T07:43:51;100162.31;;;21.82;78.62
19210;BME280;9738;51.654;14.238;2022-07-26T07:46:16;100180.97;;;21.79;80.89
19210;BME280;9738;51.654;14.238;2022-07-26T07:48:42;100194.16;;;21.64;81.47
19210;BME280;9738;51.654;14.238;2022-07-26T07:51:09;100205.13;;;21.39;85.21
19210;BME280;9738;51.654;14.238;2022-07-26T07:53:35;100196.41;;;21.12;90.94
19210;BME280;9738;51.654;14.238;2022-07-26T07:56:01;100177.03;;;20.90;96.52
19210;BME280;9738;51.654;14.238;2022-07-26T07:58:27;100196.22;;;20.70;97.28
19210;BME280;9738;51.654;14.238;2022-07-26T08:00:53;100200.25;;;20.61;100.00
19210;BME280;9738;51.654;14.238;2022-07-26T08:03:18;100202.63;;;20.57;100.00
19210;BME280;9738;51.654;14.238;2022-07-26T08:05:46;100201.63;;;20.51;100.00
19210;BME280;9738;51.654;14.238;2022-07-26T08:08:12;100199.97;;;20.50;100.00
19210;BME280;9738;51.654;14.238;2022-07-26T08:10:37;100203.50;;;20.51;100.00
19210;BME280;9738;51.654;14.238;2022-07-26T08:13:04;100197.63;;;20.54;100.00
19210;BME280;9738;51.654;14.238;2022-07-26T08:15:29;100204.03;;;20.60;100.00
19210;BME280;9738;51.654;14.238;2022-07-26T08:17:55;100197.13;;;20.64;100.00
19210;BME280;9738;51.654;14.238;2022-07-26T08:20:22;100190.75;;;20.76;100.00
19210;BME280;9738;51.654;14.238;2022-07-26T08:22:48;100193.47;;;20.95;100.00
19210;BME280;9738;51.654;14.238;2022-07-26T08:25:13;100203.81;;;21.23;100.00
19210;BME280;9738;51.654;14.238;2022-07-26T08:27:40;100197.56;;;21.41;100.00
19210;BME280;9738;51.654;14.238;2022-07-26T08:30:06;100194.44;;;21.55;100.00
19210;BME280;9738;51.654;14.238;2022-07-26T08:32:32;100194.25;;;21.69;100.00
19210;BME280;9738;51.654;14.238;2022-07-26T08:34:58;100206.59;;;21.71;100.00
19210;BME280;9738;51.654;14.238;2022-07-26T08:37:24;100206.81;;;21.70;100.00
19210;BME280;9738;51.654;14.238;2022-07-26T08:39:49;100201.69;;;21.62;100.00
19210;BME280;9738;51.654;14.238;2022-07-26T08:42:18;100211.97;;;21.59;100.00
19210;BME280;9738;51.654;14.238;2022-07-26T08:44:46;100224.22;;;21.50;100.00
19210;BME280;9738;51.654;14.238;2022-07-26T08:47:13;100219.06;;;21.42;100.00
19210;BME280;9738;51.654;14.238;2022-07-26T08:49:41;100227.94;;;21.38;100.00
19210;BME280;9738;51.654;14.238;2022-07-26T08:52:08;100227.78;;;21.33;100.00
19210;BME280;9738;51.654;14.238;2022-07-26T08:54:34;100233.63;;;21.29;100.00
19210;BME280;9738;51.654;14.238;2022-07-26T08:57:01;100230.53;;;21.26;100.00
19210;BME280;9738;51.654;14.238;2022-07-26T08:59:27;100231.19;;;21.21;100.00
19210;BME280;9738;51.654;14.238;2022-07-26T09:02:02;100225.59;;;21.16;100.00
19210;BME280;9738;51.654;14.238;2022-07-26T09:04:31;100219.34;;;21.16;100.00
19210;BME280;9738;51.654;14.238;2022-07-26T09:07:00;100220.34;;;21.21;100.00
19210;BME280;9738;51.654;14.238;2022-07-26T09:09:26;100223.44;;;21.25;100.00
19210;BME280;9738;51.654;14.238;2022-07-26T09:11:55;100222.03;;;21.41;100.00
19210;BME280;9738;51.654;14.238;2022-07-26T09:14:22;100222.97;;;21.65;100.00
19210;BME280;9738;51.654;14.238;2022-07-26T09:17:00;100224.38;;;21.85;100.00
19210;BME280;9738;51.654;14.238;2022-07-26T09:19:26;100228.44;;;22.06;100.00
19210;BME280;9738;51.654;14.238;2022-07-26T09:21:53;100223.25;;;22.35;100.00
19210;BME280;9738;51.654;14.238;2022-07-26T09:24:35;100221.97;;;22.61;100.00
19210;BME280;9738;51.654;14.238;2022-07-26T09:27:04;100214.91;;;22.72;99.51
19210;BME280;9738;51.654;14.238;2022-07-26T09:29:41;100221.41;;;22.94;89.41
19210;BME280;9738;51.654;14.238;2022-07-26T09:32:10;100219.47;;;23.30;93.37
19210;BME280;9738;51.654;14.238;2022-07-26T09:34:37;100214.44;;;23.50;85.49
19210;BME280;9738;51.654;14.238;2022-07-26T09:37:03;100214.41;;;23.73;80.46
19210;BME280;9738;51.654;14.238;2022-07-26T09:39:29;100210.41;;;23.93;78.52
19210;BME280;9738;51.654;14.238;2022-07-26T09:41:55;100211.03;;;24.12;74.92
19210;BME280;9738;51.654;14.238;2022-07-26T09:44:24;100216.22;;;24.13;70.24
19210;BME280;9738;51.654;14.238;2022-07-26T09:46:54;100206.47;;;24.17;70.24
19210;BME280;9738;51.654;14.238;2022-07-26T09:49:23;100205.44;;;24.52;75.94
19210;BME280;9738;51.654;14.238;2022-07-26T09:51:51;100211.31;;;24.61;67.82
19210;BME280;9738;51.654;14.238;2022-07-26T09:54:19;100219.59;;;24.66;68.02
19210;BME280;9738;51.654;14.238;2022-07-26T09:56:55;100214.94;;;24.66;68.32
19210;BME280;9738;51.654;14.238;2022-07-26T09:59:23;100211.13;;;24.67;70.13
19210;BME280;9738;51.654;14.238;2022-07-26T10:01:51;100209.09;;;24.58;69.72
19210;BME280;9738;51.654;14.238;2022-07-26T10:04:18;100206.44;;;24.46;68.48
19210;BME280;9738;51.654;14.238;2022-07-26T10:06:44;100203.72;;;24.17;62.04
19210;BME280;9738;51.654;14.238;2022-07-26T10:09:10;100207.38;;;24.06;62.20
19210;BME280;9738;51.654;14.238;2022-07-26T10:11:43;100207.44;;;23.94;61.30
19210;BME280;9738;51.654;14.238;2022-07-26T10:14:45;100206.13;;;23.68;58.00
19210;BME280;9738;51.654;14.238;2022-07-26T10:20:05;100212.19;;;23.47;60.75
19210;BME280;9738;51.654;14.238;2022-07-26T10:22:40;100222.19;;;23.41;59.67
19210;BME280;9738;51.654;14.238;2022-07-26T10:27:56;100233.53;;;23.62;58.45
19210;BME280;9738;51.654;14.238;2022-07-26T10:30:24;100231.81;;;23.72;61.28
19210;BME280;9738;51.654;14.238;2022-07-26T10:32:59;100227.44;;;23.71;61.21
19210;BME280;9738;51.654;14.238;2022-07-26T10:38:11;100216.22;;;24.13;60.72
19210;BME280;9738;51.654;14.238;2022-07-26T10:40:58;100221.66;;;24.59;59.34
19210;BME280;9738;51.654;14.238;2022-07-26T10:43:25;100220.34;;;25.00;60.72
19210;BME280;9738;51.654;14.238;2022-07-26T10:49:03;100220.69;;;25.20;53.31
19210;BME280;9738;51.654;14.238;2022-07-26T10:51:39;100224.44;;;25.14;52.76
19210;BME280;9738;51.654;14.238;2022-07-26T10:54:10;100217.81;;;25.10;52.00
19210;BME280;9738;51.654;14.238;2022-07-26T10:56:38;100212.41;;;25.15;49.96
19210;BME280;9738;51.654;14.238;2022-07-26T10:59:04;100211.31;;;25.16;49.29
19210;BME280;9738;51.654;14.238;2022-07-26T11:01:41;100201.41;;;25.32;49.84
19210;BME280;9738;51.654;14.238;2022-07-26T11:04:18;100205.66;;;25.45;50.82
19210;BME280;9738;51.654;14.238;2022-07-26T11:06:44;100215.91;;;25.54;50.42
19210;BME280;9738;51.654;14.238;2022-07-26T11:09:10;100209.28;;;25.50;47.33
19210;BME280;9738;51.654;14.238;2022-07-26T11:11:37;100212.09;;;25.55;48.67
19210;BME280;9738;51.654;14.238;2022-07-26T11:14:11;100214.38;;;25.64;49.92
19210;BME280;9738;51.654;14.238;2022-07-26T11:16:46;100210.34;;;25.93;47.71
19210;BME280;9738;51.654;14.238;2022-07-26T11:19:22;100208.63;;;26.14;46.77
19210;BME280;9738;51.654;14.238;2022-07-26T11:21:54;100208.63;;;26.14;46.94
19210;BME280;9738;51.654;14.238;2022-07-26T11:24:20;100204.25;;;26.13;43.71
19210;BME280;9738;51.654;14.238;2022-07-26T11:26:46;100209.44;;;26.09;44.20
19210;BME280;9738;51.654;14.238;2022-07-26T11:29:13;100210.88;;;26.17;45.02
19210;BME280;9738;51.654;14.238;2022-07-26T11:31:41;100208.59;;;26.09;43.06
19210;BME280;9738;51.654;14.238;2022-07-26T11:34:15;100205.34;;;26.12;44.62
19210;BME280;9738;51.654;14.238;2022-07-26T11:36:43;100198.94;;;26.28;45.09
19210;BME280;9738;51.654;14.238;2022-07-26T11:39:12;100198.03;;;26.50;44.63
19210;BME280;9738;51.654;14.238;2022-07-26T11:41:39;100186.34;;;26.64;42.71
19210;BME280;9738;51.654;14.238;2022-07-26T11:44:05;100183.38;;;26.66;44.72
19210;BME280;9738;51.654;14.238;2022-07-26T11:46:39;100188.53;;;26.62;44.57
19210;BME280;9738;51.654;14.238;2022-07-26T11:49:13;100193.69;;;26.54;45.12
19210;BME280;9738;51.654;14.238;2022-07-26T11:51:47;100203.09;;;26.36;42.24
19210;BME280;9738;51.654;14.238;2022-07-26T11:54:14;100203.00;;;26.26;43.47
19210;BME280;9738;51.654;14.238;2022-07-26T11:56:49;100201.63;;;26.23;43.26
19210;BME280;9738;51.654;14.238;2022-07-26T11:59:15;100187.66;;;26.25;41.15
19210;BME280;9738;51.654;14.238;2022-07-26T12:01:44;100192.78;;;26.16;39.72
19210;BME280;9738;51.654;14.238;2022-07-26T12:04:21;100187.53;;;26.09;40.58
19210;BME280;9738;51.654;14.238;2022-07-26T12:06:49;100193.22;;;26.03;41.57
19210;BME280;9738;51.654;14.238;2022-07-26T12:09:35;100184.41;;;26.01;42.39
19210;BME280;9738;51.654;14.238;2022-07-26T12:12:04;100190.81;;;26.11;43.07
19210;BME280;9738;51.654;14.238;2022-07-26T12:14:33;100184.91;;;26.25;41.00
19210;BME280;9738;51.654;14.238;2022-07-26T12:17:09;100195.44;;;26.38;41.57
19210;BME280;9738;51.654;14.238;2022-07-26T12:19:36;100189.84;;;26.55;42.32
19210;BME280;9738;51.654;14.238;2022-07-26T12:22:11;100186.19;;;26.81;41.20
19210;BME280;9738;51.654;14.238;2022-07-26T12:24:41;100183.78;;;26.95;39.30
19210;BME280;9738;51.654;14.238;2022-07-26T12:29:44;100182.84;;;27.21;38.49
19210;BME280;9738;51.654;14.238;2022-07-26T12:32:19;100178.75;;;27.19;38.29
19210;BME280;9738;51.654;14.238;2022-07-26T12:35:06;100174.22;;;26.98;38.05
19210;BME280;9738;51.654;14.238;2022-07-26T12:37:33;100181.25;;;26.83;39.61
19210;BME280;9738;51.654;14.238;2022-07-26T12:40:03;100186.66;;;26.68;38.89
19210;BME280;9738;51.654;14.238;2022-07-26T12:42:32;100187.38;;;26.53;40.10
19210;BME280;9738;51.654;14.238;2022-07-26T12:44:58;100188.66;;;26.40;39.91
19210;BME280;9738;51.654;14.238;2022-07-26T12:47:26;100192.34;;;26.29;40.79
19210;BME280;9738;51.654;14.238;2022-07-26T12:49:52;100188.41;;;26.15;40.42
19210;BME280;9738;51.654;14.238;2022-07-26T12:52:20;100189.34;;;25.99;39.60
19210;BME280;9738;51.654;14.238;2022-07-26T12:54:49;100197.41;;;25.83;40.80
19210;BME280;9738;51.654;14.238;2022-07-26T12:57:15;100202.25;;;25.54;40.68
19210;BME280;9738;51.654;14.238;2022-07-26T12:59:41;100210.75;;;25.36;41.29
19210;BME280;9738;51.654;14.238;2022-07-26T13:02:08;100208.25;;;25.13;41.69